Weather History for Freeport, IL

Change the Weather History Date:

Saturday, July 20, 2013

  Actual Average Record
Temperature  
Mean Temperature 75 °F -  
Max Temperature 86 °F 86 °F 97 °F (1977)
Min Temperature 64 °F 65 °F 51 °F (2007)
Cooling Degree Days 10    
Growing Degree Days 25 (Base 50)    
Moisture  
Dew Point 65 °F    
Average Humidity 71    
Maximum Humidity 92    
Minimum Humidity 47    
Precipitation  
Precipitation 0.00 in - - ()
Sea Level Pressure  
Sea Level Pressure 29.93 in    
Wind  
Wind Speed 4 mph (WNW)    
Max Wind Speed 12 mph    
Max Gust Speed 17 mph    
Visibility 10 miles    
Events      
Averages and records for this station are not official NWS values.
T = Trace of Precipitation, MM = Missing Value Source: NWS Daily Summary

Daily Weather History Graph

Daily Weather History Graph

Search for Another Location

Airport:

Trip Planner

Search our weather history database for the weather conditions in past years. The results will help you decide how hot, cold, wet, or windy it might be!

Date:

Astronomy

Jul. 20, 2013 Rise Set
Actual Time 5:39 AM CDT 8:29 PM CDT
Civil Twilight 5:06 AM CDT 9:01 PM CDT
Nautical Twilight 4:25 AM CDT 9:43 PM CDT
Astronomical Twilight 3:36 AM CDT 10:31 PM CDT
Moon 6:32 PM CDT (7/20) 3:19 AM CDT (7/20)
Length of Visible Light 15h 55m
Length of Day
14h 49m
Waxing Gibbous, 94% of the Moon is Illuminated
Jul 20
Waxing Gibbous
Jul 22
Full
Jul 29
Last Quarter
Aug 6
New
Aug 14
First Quarter

Hourly Weather History & Observations

Time (CDT) Temp. Heat Index Dew Point Humidity Pressure Visibility Wind Dir Wind Speed Gust Speed Precip Events Conditions
12:15 AM 74.3 °F - 67.6 °F 80% 29.88 in 10.0 mi WNW 5.8 mph - N/A   Clear
12:35 AM 74.3 °F - 68.4 °F 82% 29.89 in 10.0 mi WNW 5.8 mph - N/A   Clear
12:55 AM 74.3 °F - 68.5 °F 82% 29.89 in 10.0 mi WNW 5.8 mph - N/A   Clear
1:15 AM 72.5 °F - 66.9 °F 83% 29.89 in 10.0 mi WNW 3.5 mph - N/A   Clear
1:35 AM 69.1 °F - 64.4 °F 85% 29.89 in 10.0 mi WNW 3.5 mph - N/A   Clear
1:55 AM 70.3 °F - 65.3 °F 84% 29.89 in 10.0 mi West 4.6 mph - N/A   Clear
2:15 AM 70.0 °F - 65.1 °F 85% 29.89 in 10.0 mi WNW 4.6 mph - N/A   Clear
2:35 AM 69.4 °F - 64.6 °F 84% 29.89 in 10.0 mi West 5.8 mph - N/A   Clear
2:55 AM 69.3 °F - 64.2 °F 84% 29.89 in 10.0 mi WNW 4.6 mph - N/A   Clear
3:15 AM 66.9 °F - 62.8 °F 87% 29.89 in 10.0 mi WNW 5.8 mph - N/A   Clear
3:35 AM 66.2 °F - 62.2 °F 87% 29.89 in 10.0 mi WNW 4.6 mph - N/A   Clear
3:55 AM 66.7 °F - 62.6 °F 86% 29.89 in 10.0 mi West 4.6 mph - N/A   Clear
4:15 AM 64.9 °F - 61.5 °F 89% 29.89 in 10.0 mi West 4.6 mph - N/A   Clear
4:35 AM 65.7 °F - 62.4 °F 89% 29.89 in 10.0 mi West 4.6 mph - N/A   Clear
4:55 AM 64.0 °F - 60.8 °F 89% 29.90 in 10.0 mi Calm Calm - N/A   Clear
5:15 AM 64.0 °F - 61.0 °F 90% 29.91 in 10.0 mi WSW 3.5 mph - N/A   Clear
5:35 AM 64.0 °F - 61.2 °F 90% 29.91 in 10.0 mi Calm Calm - N/A   Clear
5:55 AM 64.0 °F - 61.5 °F 91% 29.92 in 10.0 mi West 3.5 mph - N/A   Clear
6:15 AM 64.0 °F - 61.7 °F 92% 29.91 in 10.0 mi Calm Calm - N/A   Clear
6:35 AM 64.0 °F - 61.7 °F 92% 29.92 in 10.0 mi SSW 3.5 mph - N/A   Clear
6:55 AM 65.8 °F - 62.8 °F 90% 29.91 in 10.0 mi WSW 3.5 mph - N/A   Clear
7:15 AM 67.1 °F - 63.1 °F 87% 29.92 in 10.0 mi Calm Calm - N/A   Clear
7:35 AM 69.3 °F - 64.9 °F 86% 29.93 in 10.0 mi Calm Calm - N/A   Clear
7:55 AM 71.8 °F - 66.4 °F 83% 29.93 in 10.0 mi Calm Calm - N/A   Clear
8:15 AM 74.3 °F - 67.8 °F 80% 29.94 in 10.0 mi Calm Calm - N/A   Clear
8:35 AM 74.3 °F - 66.2 °F 76% 29.94 in 10.0 mi Calm Calm - N/A   Clear
8:55 AM 75.0 °F - 65.7 °F 73% 29.94 in 10.0 mi NW 3.5 mph - N/A   Clear
9:15 AM 77.0 °F - 65.8 °F 68% 29.94 in 10.0 mi Calm Calm - N/A   Clear
9:35 AM 79.3 °F - 66.0 °F 64% 29.95 in 10.0 mi NW 3.5 mph - N/A   Clear
9:55 AM 79.3 °F - 65.5 °F 62% 29.96 in 10.0 mi NW 5.8 mph - N/A   Clear
10:15 AM 79.3 °F - 64.2 °F 60% 29.96 in 10.0 mi NW 3.5 mph - N/A   Clear
10:35 AM 81.3 °F 82.9 °F 64.0 °F 56% 29.96 in 10.0 mi Calm Calm - N/A   Clear
10:55 AM 81.9 °F 83.1 °F 63.3 °F 53% 29.96 in 10.0 mi WNW 3.5 mph - N/A   Clear
11:15 AM 81.9 °F 82.8 °F 62.2 °F 51% 29.97 in 10.0 mi NW 4.6 mph - N/A   Clear
11:35 AM 81.9 °F 82.6 °F 61.7 °F 50% 29.97 in 10.0 mi NW 5.8 mph - N/A   Clear
11:55 AM 82.0 °F 82.4 °F 59.9 °F 47% 29.96 in 10.0 mi Calm Calm - N/A   Clear
12:15 PM 81.9 °F 82.6 °F 61.5 °F 50% 29.96 in 10.0 mi NNE 3.5 mph - N/A   Clear
12:35 PM 82.8 °F 83.4 °F 62.1 °F 49% 29.96 in 10.0 mi Calm Calm - N/A   Scattered Clouds
12:55 PM 81.9 °F 82.6 °F 61.7 °F 50% 29.96 in 10.0 mi NW 3.5 mph - N/A   Mostly Cloudy
1:15 PM 83.8 °F 84.7 °F 62.6 °F 49% 29.96 in 10.0 mi West 4.6 mph - N/A   Scattered Clouds
1:35 PM 84.4 °F 85.4 °F 63.5 °F 49% 29.96 in 10.0 mi West 5.8 mph - N/A   Scattered Clouds
1:55 PM 84.4 °F 85.6 °F 63.7 °F 50% 29.95 in 10.0 mi Calm Calm - N/A   Scattered Clouds
2:15 PM 85.5 °F 86.8 °F 64.4 °F 49% 29.94 in 10.0 mi WSW 3.5 mph - N/A   Scattered Clouds
2:35 PM 84.6 °F 85.4 °F 62.8 °F 48% 29.94 in 10.0 mi NW 3.5 mph - N/A   Scattered Clouds
2:55 PM 85.1 °F 86.4 °F 64.0 °F 49% 29.93 in 10.0 mi West 4.6 mph - N/A   Scattered Clouds
3:15 PM 86.0 °F 87.1 °F 63.9 °F 47% 29.93 in 10.0 mi West 6.9 mph - N/A   Scattered Clouds
3:35 PM 85.6 °F 87.4 °F 64.9 °F 50% 29.92 in 10.0 mi WSW 10.4 mph - N/A   Scattered Clouds
3:55 PM 85.6 °F 87.1 °F 64.4 °F 49% 29.92 in 10.0 mi WSW 4.6 mph - N/A   Clear
4:15 PM 85.8 °F 87.9 °F 65.7 °F 51% 29.92 in 10.0 mi West 9.2 mph 17.3 mph N/A   Mostly Cloudy
4:35 PM 85.6 °F 87.6 °F 65.8 °F 51% 29.91 in 10.0 mi West 8.1 mph - N/A   Scattered Clouds
4:55 PM 85.6 °F 87.4 °F 65.3 °F 50% 29.91 in 10.0 mi West 9.2 mph - N/A   Scattered Clouds
5:15 PM 84.6 °F 86.6 °F 65.5 °F 53% 29.91 in 10.0 mi WNW 11.5 mph - N/A   Scattered Clouds
5:35 PM 84.4 °F 86.8 °F 66.6 °F 55% 29.90 in 10.0 mi West 5.8 mph - N/A   Scattered Clouds
5:55 PM 85.3 °F 87.9 °F 66.9 °F 54% 29.90 in 10.0 mi WNW 8.1 mph - N/A   Mostly Cloudy
6:15 PM 81.9 °F 83.5 °F 64.9 °F 56% 29.91 in 10.0 mi West 9.2 mph - N/A   Scattered Clouds
6:35 PM 81.9 °F 84.2 °F 66.9 °F 60% 29.91 in 10.0 mi West 5.8 mph - N/A   Clear
6:55 PM 81.7 °F 84.5 °F 68.0 °F 63% 29.92 in 10.0 mi West 4.6 mph - N/A   Scattered Clouds
7:15 PM 79.3 °F - 66.9 °F 66% 29.93 in 10.0 mi WSW 3.5 mph - N/A   Scattered Clouds
7:35 PM 79.3 °F - 67.5 °F 67% 29.92 in 10.0 mi WSW 3.5 mph - N/A   Scattered Clouds
7:55 PM 79.3 °F - 68.2 °F 69% 29.93 in 10.0 mi West 10.4 mph - N/A   Scattered Clouds
8:15 PM 79.3 °F - 69.4 °F 72% 29.94 in 10.0 mi West 6.9 mph - N/A   Clear
8:35 PM 77.0 °F - 68.4 °F 75% 29.95 in 10.0 mi West 6.9 mph - N/A   Clear
8:55 PM 74.3 °F - 68.4 °F 82% 29.96 in 10.0 mi Calm Calm - N/A   Clear
9:15 PM 74.3 °F - 68.7 °F 83% 29.96 in 10.0 mi West 4.6 mph - N/A   Mostly Cloudy
9:35 PM 74.3 °F - 69.3 °F 84% 29.97 in 10.0 mi Calm Calm - N/A   Overcast
9:55 PM 74.3 °F - 69.4 °F 85% 29.96 in 10.0 mi NNE 3.5 mph - N/A   Mostly Cloudy
10:15 PM 71.8 °F - 68.0 °F 88% 29.97 in 10.0 mi NNE 4.6 mph - N/A   Scattered Clouds
10:35 PM 71.8 °F - 67.5 °F 86% 29.97 in 10.0 mi NE 4.6 mph - N/A   Clear
10:55 PM 71.2 °F - 67.1 °F 87% 29.98 in 10.0 mi East 3.5 mph - N/A   Clear
11:15 PM 69.3 °F - 66.2 °F 90% 29.97 in 10.0 mi ENE 4.6 mph - N/A   Clear
11:35 PM 67.3 °F - 64.4 °F 90% 29.98 in 10.0 mi NE 5.8 mph - N/A   Clear
11:55 PM 66.6 °F - 64.0 °F 92% 29.98 in 10.0 mi NE 5.8 mph - N/A   Clear